sensor_id;sensor_type;location;lat;lon;timestamp;P1;P2;P0
20157;PMS5003;10239;56.820;24.416;2023-07-13T00:02:24;5.75;5.75;3.00
20157;PMS5003;10239;56.820;24.416;2023-07-13T00:04:54;6.25;6.25;3.25
20157;PMS5003;10239;56.820;24.416;2023-07-13T00:07:21;6.00;4.50;3.00
20157;PMS5003;10239;56.820;24.416;2023-07-13T00:09:50;9.75;8.00;4.00
20157;PMS5003;10239;56.820;24.416;2023-07-13T00:12:37;7.50;5.00;3.00
20157;PMS5003;10239;56.820;24.416;2023-07-13T00:15:41;8.25;6.00;3.75
20157;PMS5003;10239;56.820;24.416;2023-07-13T00:18:02;4.50;4.50;3.00
20157;PMS5003;10239;56.820;24.416;2023-07-13T00:20:30;8.00;6.00;3.50
20157;PMS5003;10239;56.820;24.416;2023-07-13T00:22:57;6.50;6.50;3.25
20157;PMS5003;10239;56.820;24.416;2023-07-13T00:25:25;10.25;8.00;3.00
20157;PMS5003;10239;56.820;24.416;2023-07-13T00:27:55;7.00;7.00;4.00
20157;PMS5003;10239;56.820;24.416;2023-07-13T00:30:23;5.50;5.50;4.00
20157;PMS5003;10239;56.820;24.416;2023-07-13T00:32:50;6.00;6.00;3.50
20157;PMS5003;10239;56.820;24.416;2023-07-13T00:35:34;6.75;5.50;3.50
20157;PMS5003;10239;56.820;24.416;2023-07-13T00:38:02;6.75;6.00;4.00
20157;PMS5003;10239;56.820;24.416;2023-07-13T00:40:29;4.00;4.00;2.00
20157;PMS5003;10239;56.820;24.416;2023-07-13T00:42:58;8.00;4.50;3.25
20157;PMS5003;10239;56.820;24.416;2023-07-13T00:47:54;8.25;5.00;3.00
20157;PMS5003;10239;56.820;24.416;2023-07-13T00:50:24;3.25;3.25;2.25
20157;PMS5003;10239;56.820;24.416;2023-07-13T00:52:52;6.00;5.75;3.25
20157;PMS5003;10239;56.820;24.416;2023-07-13T00:55:22;4.75;4.75;3.00
20157;PMS5003;10239;56.820;24.416;2023-07-13T00:57:50;4.50;4.50;2.50
20157;PMS5003;10239;56.820;24.416;2023-07-13T01:00:17;3.00;3.00;2.00
20157;PMS5003;10239;56.820;24.416;2023-07-13T01:02:48;8.00;4.75;3.00
20157;PMS5003;10239;56.820;24.416;2023-07-13T01:05:18;7.50;6.75;4.00
20157;PMS5003;10239;56.820;24.416;2023-07-13T01:07:47;5.00;5.00;3.25
20157;PMS5003;10239;56.820;24.416;2023-07-13T01:10:21;7.50;5.00;4.00
20157;PMS5003;10239;56.820;24.416;2023-07-13T01:12:51;8.00;5.50;3.00
20157;PMS5003;10239;56.820;24.416;2023-07-13T01:15:43;5.00;5.00;3.00
20157;PMS5003;10239;56.820;24.416;2023-07-13T01:18:15;6.50;5.00;3.25
20157;PMS5003;10239;56.820;24.416;2023-07-13T01:21:02;9.00;6.50;4.00
20157;PMS5003;10239;56.820;24.416;2023-07-13T01:23:31;6.50;6.00;3.75
20157;PMS5003;10239;56.820;24.416;2023-07-13T01:25:59;7.50;6.00;3.75
20157;PMS5003;10239;56.820;24.416;2023-07-13T01:28:28;9.00;6.00;3.00
20157;PMS5003;10239;56.820;24.416;2023-07-13T01:30:57;7.25;7.25;4.00
20157;PMS5003;10239;56.820;24.416;2023-07-13T01:33:25;6.25;6.00;3.50
20157;PMS5003;10239;56.820;24.416;2023-07-13T01:35:53;3.00;3.00;3.00
20157;PMS5003;10239;56.820;24.416;2023-07-13T01:38:24;6.50;4.75;3.00
20157;PMS5003;10239;56.820;24.416;2023-07-13T01:40:53;6.00;4.75;2.00
20157;PMS5003;10239;56.820;24.416;2023-07-13T01:43:23;11.50;7.25;5.00
20157;PMS5003;10239;56.820;24.416;2023-07-13T01:45:50;5.75;4.75;3.50
20157;PMS5003;10239;56.820;24.416;2023-07-13T01:48:18;6.75;5.25;3.00
20157;PMS5003;10239;56.820;24.416;2023-07-13T01:50:47;9.25;6.00;3.00
20157;PMS5003;10239;56.820;24.416;2023-07-13T01:53:15;6.75;6.50;4.00
20157;PMS5003;10239;56.820;24.416;2023-07-13T01:55:43;6.50;4.25;2.25
20157;PMS5003;10239;56.820;24.416;2023-07-13T01:58:10;6.75;6.00;2.00
20157;PMS5003;10239;56.820;24.416;2023-07-13T02:00:38;8.50;7.50;4.50
20157;PMS5003;10239;56.820;24.416;2023-07-13T02:03:06;4.50;4.50;2.50
20157;PMS5003;10239;56.820;24.416;2023-07-13T02:05:34;5.50;5.50;2.75
20157;PMS5003;10239;56.820;24.416;2023-07-13T02:08:01;5.50;5.50;3.00
20157;PMS5003;10239;56.820;24.416;2023-07-13T02:10:30;5.50;5.50;3.50
20157;PMS5003;10239;56.820;24.416;2023-07-13T02:12:58;3.00;3.00;3.00
20157;PMS5003;10239;56.820;24.416;2023-07-13T02:15:26;6.00;6.00;4.00
20157;PMS5003;10239;56.820;24.416;2023-07-13T02:17:53;4.25;4.25;2.50
20157;PMS5003;10239;56.820;24.416;2023-07-13T02:20:21;6.75;4.75;3.00
20157;PMS5003;10239;56.820;24.416;2023-07-13T02:22:49;6.50;5.50;3.50
20157;PMS5003;10239;56.820;24.416;2023-07-13T02:25:20;8.50;7.00;4.25
20157;PMS5003;10239;56.820;24.416;2023-07-13T02:27:48;7.50;6.00;3.25
20157;PMS5003;10239;56.820;24.416;2023-07-13T02:30:16;5.00;5.00;4.00
20157;PMS5003;10239;56.820;24.416;2023-07-13T02:32:44;8.50;6.75;4.00
20157;PMS5003;10239;56.820;24.416;2023-07-13T02:35:18;5.25;4.25;3.00
20157;PMS5003;10239;56.820;24.416;2023-07-13T02:37:45;7.75;7.75;4.50
20157;PMS5003;10239;56.820;24.416;2023-07-13T02:40:13;7.75;6.50;3.75
20157;PMS5003;10239;56.820;24.416;2023-07-13T02:42:40;7.50;6.00;4.00
20157;PMS5003;10239;56.820;24.416;2023-07-13T02:45:08;6.00;6.00;3.50
20157;PMS5003;10239;56.820;24.416;2023-07-13T02:47:36;8.75;8.75;4.75
20157;PMS5003;10239;56.820;24.416;2023-07-13T02:50:04;7.00;3.50;0.75
20157;PMS5003;10239;56.820;24.416;2023-07-13T02:52:32;6.75;5.25;3.00
20157;PMS5003;10239;56.820;24.416;2023-07-13T02:55:00;6.50;4.50;3.00
20157;PMS5003;10239;56.820;24.416;2023-07-13T02:57:27;6.00;6.00;4.00
20157;PMS5003;10239;56.820;24.416;2023-07-13T02:59:55;8.25;6.75;3.00
20157;PMS5003;10239;56.820;24.416;2023-07-13T03:02:22;5.75;5.75;3.25
20157;PMS5003;10239;56.820;24.416;2023-07-13T03:04:50;9.00;7.50;4.00
20157;PMS5003;10239;56.820;24.416;2023-07-13T03:07:18;6.50;5.75;3.50
20157;PMS5003;10239;56.820;24.416;2023-07-13T03:09:47;9.00;8.00;4.00
20157;PMS5003;10239;56.820;24.416;2023-07-13T03:12:15;5.00;4.75;3.00
20157;PMS5003;10239;56.820;24.416;2023-07-13T03:14:43;5.50;5.50;3.00
20157;PMS5003;10239;56.820;24.416;2023-07-13T03:17:10;6.50;6.00;4.00
20157;PMS5003;10239;56.820;24.416;2023-07-13T03:19:40;8.25;7.00;3.25
20157;PMS5003;10239;56.820;24.416;2023-07-13T03:22:08;8.00;6.25;4.50
20157;PMS5003;10239;56.820;24.416;2023-07-13T03:24:37;5.25;5.25;4.00
20157;PMS5003;10239;56.820;24.416;2023-07-13T03:27:06;8.50;7.00;4.00
20157;PMS5003;10239;56.820;24.416;2023-07-13T03:29:37;5.75;5.75;3.75
20157;PMS5003;10239;56.820;24.416;2023-07-13T03:32:05;5.25;4.50;2.50
20157;PMS5003;10239;56.820;24.416;2023-07-13T03:34:33;7.25;5.25;2.50
20157;PMS5003;10239;56.820;24.416;2023-07-13T03:37:01;9.25;6.50;3.50
20157;PMS5003;10239;56.820;24.416;2023-07-13T03:39:29;10.00;7.25;4.00
20157;PMS5003;10239;56.820;24.416;2023-07-13T03:41:57;7.00;6.25;3.50
20157;PMS5003;10239;56.820;24.416;2023-07-13T03:44:26;7.00;7.00;5.00
20157;PMS5003;10239;56.820;24.416;2023-07-13T03:46:55;4.00;3.00;2.75
20157;PMS5003;10239;56.820;24.416;2023-07-13T03:49:23;6.00;6.00;4.00
20157;PMS5003;10239;56.820;24.416;2023-07-13T03:51:51;8.75;6.00;3.25
20157;PMS5003;10239;56.820;24.416;2023-07-13T03:54:20;3.00;1.50;1.00
20157;PMS5003;10239;56.820;24.416;2023-07-13T03:56:47;6.50;5.50;3.50
20157;PMS5003;10239;56.820;24.416;2023-07-13T03:59:16;5.25;5.25;3.50
20157;PMS5003;10239;56.820;24.416;2023-07-13T04:01:44;5.00;5.00;3.00
20157;PMS5003;10239;56.820;24.416;2023-07-13T04:04:12;5.50;5.50;3.00
20157;PMS5003;10239;56.820;24.416;2023-07-13T04:06:40;4.00;4.00;2.75
20157;PMS5003;10239;56.820;24.416;2023-07-13T04:09:11;8.50;6.50;3.50
20157;PMS5003;10239;56.820;24.416;2023-07-13T04:11:38;9.25;5.75;3.50
20157;PMS5003;10239;56.820;24.416;2023-07-13T04:14:06;9.00;6.50;3.50
20157;PMS5003;10239;56.820;24.416;2023-07-13T04:16:38;8.75;7.50;4.50
20157;PMS5003;10239;56.820;24.416;2023-07-13T04:19:06;8.75;7.50;5.00
20157;PMS5003;10239;56.820;24.416;2023-07-13T04:21:34;9.75;7.00;3.50
20157;PMS5003;10239;56.820;24.416;2023-07-13T04:24:02;8.50;7.75;4.75
20157;PMS5003;10239;56.820;24.416;2023-07-13T04:26:30;9.00;7.25;5.00
20157;PMS5003;10239;56.820;24.416;2023-07-13T04:28:58;8.00;6.75;4.00
20157;PMS5003;10239;56.820;24.416;2023-07-13T04:31:26;8.50;5.50;4.00
20157;PMS5003;10239;56.820;24.416;2023-07-13T04:33:53;7.25;6.00;5.00
20157;PMS5003;10239;56.820;24.416;2023-07-13T04:36:21;10.00;6.50;3.75
20157;PMS5003;10239;56.820;24.416;2023-07-13T04:38:49;7.50;5.00;4.00
20157;PMS5003;10239;56.820;24.416;2023-07-13T04:41:16;6.75;6.75;4.00
20157;PMS5003;10239;56.820;24.416;2023-07-13T04:43:44;7.00;5.00;4.00
20157;PMS5003;10239;56.820;24.416;2023-07-13T04:46:12;10.25;8.00;5.00
20157;PMS5003;10239;56.820;24.416;2023-07-13T04:48:42;9.00;7.00;3.75
20157;PMS5003;10239;56.820;24.416;2023-07-13T04:51:09;12.00;7.75;4.00
20157;PMS5003;10239;56.820;24.416;2023-07-13T04:53:37;11.25;9.50;6.00
20157;PMS5003;10239;56.820;24.416;2023-07-13T04:56:05;11.50;9.25;6.00
20157;PMS5003;10239;56.820;24.416;2023-07-13T04:58:32;10.00;8.00;5.00
20157;PMS5003;10239;56.820;24.416;2023-07-13T05:01:04;9.50;8.50;5.50
20157;PMS5003;10239;56.820;24.416;2023-07-13T05:03:32;8.00;8.00;5.00
20157;PMS5003;10239;56.820;24.416;2023-07-13T05:06:02;15.00;10.25;6.00
20157;PMS5003;10239;56.820;24.416;2023-07-13T05:08:32;11.00;11.00;6.00
20157;PMS5003;10239;56.820;24.416;2023-07-13T05:11:00;12.50;10.75;7.00
20157;PMS5003;10239;56.820;24.416;2023-07-13T05:13:29;11.00;9.50;6.00
20157;PMS5003;10239;56.820;24.416;2023-07-13T05:15:58;9.75;9.75;5.00
20157;PMS5003;10239;56.820;24.416;2023-07-13T05:18:27;10.40;8.40;6.20
20157;PMS5003;10239;56.820;24.416;2023-07-13T05:20:57;8.80;7.00;5.60
20157;PMS5003;10239;56.820;24.416;2023-07-13T05:23:30;8.80;7.20;3.80
20157;PMS5003;10239;56.820;24.416;2023-07-13T05:25:59;9.00;9.00;6.00
20157;PMS5003;10239;56.820;24.416;2023-07-13T05:28:27;9.20;9.20;6.00
20157;PMS5003;10239;56.820;24.416;2023-07-13T05:30:57;11.20;9.80;5.40
20157;PMS5003;10239;56.820;24.416;2023-07-13T05:33:24;14.80;11.80;5.20
20157;PMS5003;10239;56.820;24.416;2023-07-13T05:35:52;13.60;10.60;5.00
20157;PMS5003;10239;56.820;24.416;2023-07-13T05:38:21;11.40;10.40;5.40
20157;PMS5003;10239;56.820;24.416;2023-07-13T05:40:49;18.00;10.40;4.80
20157;PMS5003;10239;56.820;24.416;2023-07-13T05:43:17;7.80;7.80;3.60
20157;PMS5003;10239;56.820;24.416;2023-07-13T05:45:45;9.80;9.80;5.80
20157;PMS5003;10239;56.820;24.416;2023-07-13T05:48:12;9.60;9.60;4.60
20157;PMS5003;10239;56.820;24.416;2023-07-13T05:50:40;10.40;9.80;4.00
20157;PMS5003;10239;56.820;24.416;2023-07-13T05:53:08;12.20;9.60;6.20
20157;PMS5003;10239;56.820;24.416;2023-07-13T05:55:36;10.60;9.00;4.60
20157;PMS5003;10239;56.820;24.416;2023-07-13T05:58:07;10.00;8.00;4.40
20157;PMS5003;10239;56.820;24.416;2023-07-13T06:00:35;12.00;10.20;5.20
20157;PMS5003;10239;56.820;24.416;2023-07-13T06:03:03;11.00;10.60;5.00
20157;PMS5003;10239;56.820;24.416;2023-07-13T06:05:30;9.40;8.60;4.60
20157;PMS5003;10239;56.820;24.416;2023-07-13T06:08:00;9.00;7.60;5.00
20157;PMS5003;10239;56.820;24.416;2023-07-13T06:10:28;9.40;9.40;5.40
20157;PMS5003;10239;56.820;24.416;2023-07-13T06:12:56;7.40;7.40;3.80
20157;PMS5003;10239;56.820;24.416;2023-07-13T06:15:23;6.80;6.80;3.20
20157;PMS5003;10239;56.820;24.416;2023-07-13T06:17:51;8.40;8.40;4.00
20157;PMS5003;10239;56.820;24.416;2023-07-13T06:20:19;5.60;5.60;3.00
20157;PMS5003;10239;56.820;24.416;2023-07-13T06:22:46;7.20;7.20;3.20
20157;PMS5003;10239;56.820;24.416;2023-07-13T06:25:13;6.20;6.20;4.20
20157;PMS5003;10239;56.820;24.416;2023-07-13T06:27:41;7.80;6.40;4.00
20157;PMS5003;10239;56.820;24.416;2023-07-13T06:30:08;8.00;7.40;4.40
20157;PMS5003;10239;56.820;24.416;2023-07-13T06:32:37;8.60;8.60;4.80
20157;PMS5003;10239;56.820;24.416;2023-07-13T06:35:07;7.20;6.20;3.60
20157;PMS5003;10239;56.820;24.416;2023-07-13T06:37:35;8.40;8.40;5.00
20157;PMS5003;10239;56.820;24.416;2023-07-13T06:40:02;7.00;7.00;3.00
20157;PMS5003;10239;56.820;24.416;2023-07-13T06:42:30;8.40;8.40;4.40
20157;PMS5003;10239;56.820;24.416;2023-07-13T06:44:57;6.20;6.20;3.40
20157;PMS5003;10239;56.820;24.416;2023-07-13T06:47:25;7.00;5.00;2.80
20157;PMS5003;10239;56.820;24.416;2023-07-13T06:49:53;5.00;5.00;3.00
20157;PMS5003;10239;56.820;24.416;2023-07-13T06:52:21;6.80;5.60;2.60
20157;PMS5003;10239;56.820;24.416;2023-07-13T06:54:48;3.80;3.80;2.00
20157;PMS5003;10239;56.820;24.416;2023-07-13T06:57:15;2.20;2.20;1.60
20157;PMS5003;10239;56.820;24.416;2023-07-13T06:59:43;3.40;3.00;2.00
20157;PMS5003;10239;56.820;24.416;2023-07-13T07:02:10;4.40;3.20;2.00
20157;PMS5003;10239;56.820;24.416;2023-07-13T07:04:38;2.20;2.20;1.40
20157;PMS5003;10239;56.820;24.416;2023-07-13T07:07:05;3.60;2.60;2.00
20157;PMS5003;10239;56.820;24.416;2023-07-13T07:09:33;3.60;3.00;2.20
20157;PMS5003;10239;56.820;24.416;2023-07-13T07:12:00;3.00;3.00;2.00
20157;PMS5003;10239;56.820;24.416;2023-07-13T07:14:30;11.80;7.60;1.20
20157;PMS5003;10239;56.820;24.416;2023-07-13T07:16:58;4.40;4.40;0.60
20157;PMS5003;10239;56.820;24.416;2023-07-13T07:19:27;4.60;3.60;2.00
20157;PMS5003;10239;56.820;24.416;2023-07-13T07:21:56;3.80;3.80;2.00
20157;PMS5003;10239;56.820;24.416;2023-07-13T07:24:24;1.80;1.80;0.80
20157;PMS5003;10239;56.820;24.416;2023-07-13T07:26:51;3.60;3.60;1.00
20157;PMS5003;10239;56.820;24.416;2023-07-13T07:29:21;4.00;4.00;2.80
20157;PMS5003;10239;56.820;24.416;2023-07-13T07:31:55;7.80;4.00;2.00
20157;PMS5003;10239;56.820;24.416;2023-07-13T07:34:25;4.40;3.80;3.00
20157;PMS5003;10239;56.820;24.416;2023-07-13T07:36:53;4.40;3.00;2.00
20157;PMS5003;10239;56.820;24.416;2023-07-13T07:39:24;4.60;4.60;1.80
20157;PMS5003;10239;56.820;24.416;2023-07-13T07:41:51;1.80;1.80;1.00
20157;PMS5003;10239;56.820;24.416;2023-07-13T07:44:23;3.60;3.60;1.60
20157;PMS5003;10239;56.820;24.416;2023-07-13T07:46:50;5.60;3.20;1.20
20157;PMS5003;10239;56.820;24.416;2023-07-13T07:49:18;3.00;3.00;2.00
20157;PMS5003;10239;56.820;24.416;2023-07-13T07:51:47;4.60;4.40;1.60
20157;PMS5003;10239;56.820;24.416;2023-07-13T07:54:15;5.20;4.40;2.20
20157;PMS5003;10239;56.820;24.416;2023-07-13T07:57:03;3.60;3.60;1.00
20157;PMS5003;10239;56.820;24.416;2023-07-13T07:59:33;5.20;4.00;2.20
20157;PMS5003;10239;56.820;24.416;2023-07-13T08:02:04;3.00;3.00;2.00
20157;PMS5003;10239;56.820;24.416;2023-07-13T08:04:35;7.40;6.60;3.00
20157;PMS5003;10239;56.820;24.416;2023-07-13T08:07:05;3.00;3.00;1.80
20157;PMS5003;10239;56.820;24.416;2023-07-13T08:09:33;3.00;3.00;2.00
20157;PMS5003;10239;56.820;24.416;2023-07-13T08:12:00;4.00;4.00;2.00
20157;PMS5003;10239;56.820;24.416;2023-07-13T08:14:31;3.40;3.40;2.00
20157;PMS5003;10239;56.820;24.416;2023-07-13T08:17:17;3.60;3.60;2.00
20157;PMS5003;10239;56.820;24.416;2023-07-13T08:19:45;4.40;4.40;2.00
20157;PMS5003;10239;56.820;24.416;2023-07-13T08:22:12;3.60;3.00;2.00
20157;PMS5003;10239;56.820;24.416;2023-07-13T08:24:40;4.00;4.00;1.60
20157;PMS5003;10239;56.820;24.416;2023-07-13T08:27:10;5.00;5.00;3.00
20157;PMS5003;10239;56.820;24.416;2023-07-13T08:29:38;5.60;5.60;3.00
20157;PMS5003;10239;56.820;24.416;2023-07-13T08:32:06;4.40;4.40;2.40
20157;PMS5003;10239;56.820;24.416;2023-07-13T08:34:37;4.40;4.40;2.00
20157;PMS5003;10239;56.820;24.416;2023-07-13T08:37:05;5.80;4.20;2.40
20157;PMS5003;10239;56.820;24.416;2023-07-13T08:39:33;3.40;3.40;1.80
20157;PMS5003;10239;56.820;24.416;2023-07-13T08:42:04;4.40;4.40;1.60
20157;PMS5003;10239;56.820;24.416;2023-07-13T08:47:34;7.40;5.00;3.00
20157;PMS5003;10239;56.820;24.416;2023-07-13T08:50:04;3.00;3.00;2.20
20157;PMS5003;10239;56.820;24.416;2023-07-13T08:52:36;4.20;4.00;2.00
20157;PMS5003;10239;56.820;24.416;2023-07-13T08:58:14;4.40;4.40;3.00
20157;PMS5003;10239;56.820;24.416;2023-07-13T09:00:46;5.00;3.80;2.00
20157;PMS5003;10239;56.820;24.416;2023-07-13T09:03:27;3.00;3.00;2.00
20157;PMS5003;10239;56.820;24.416;2023-07-13T09:06:01;5.20;3.80;2.80
20157;PMS5003;10239;56.820;24.416;2023-07-13T09:11:11;5.00;3.40;2.20
20157;PMS5003;10239;56.820;24.416;2023-07-13T09:17:05;3.00;3.00;2.00
20157;PMS5003;10239;56.820;24.416;2023-07-13T09:19:38;1.80;1.80;1.00
20157;PMS5003;10239;56.820;24.416;2023-07-13T09:22:10;2.00;2.00;1.00
20157;PMS5003;10239;56.820;24.416;2023-07-13T09:24:58;3.20;3.20;2.00
20157;PMS5003;10239;56.820;24.416;2023-07-13T09:27:46;2.20;2.00;2.00
20157;PMS5003;10239;56.820;24.416;2023-07-13T09:32:54;3.00;3.00;1.00
20157;PMS5003;10239;56.820;24.416;2023-07-13T09:35:24;3.80;3.80;2.00
20157;PMS5003;10239;56.820;24.416;2023-07-13T09:37:57;4.00;3.20;2.00
20157;PMS5003;10239;56.820;24.416;2023-07-13T09:40:36;3.20;3.20;1.00
20157;PMS5003;10239;56.820;24.416;2023-07-13T09:43:22;4.00;4.00;2.00
20157;PMS5003;10239;56.820;24.416;2023-07-13T09:45:49;3.00;3.00;1.80
20157;PMS5003;10239;56.820;24.416;2023-07-13T09:48:17;3.40;3.40;2.00
20157;PMS5003;10239;56.820;24.416;2023-07-13T09:50:44;2.00;2.00;1.00
20157;PMS5003;10239;56.820;24.416;2023-07-13T09:53:16;2.00;2.00;1.20
20157;PMS5003;10239;56.820;24.416;2023-07-13T09:55:46;1.80;1.80;1.00
20157;PMS5003;10239;56.820;24.416;2023-07-13T09:58:20;3.40;3.40;1.80
20157;PMS5003;10239;56.820;24.416;2023-07-13T10:00:55;3.60;3.60;1.00
20157;PMS5003;10239;56.820;24.416;2023-07-13T10:03:33;2.00;2.00;1.00
20157;PMS5003;10239;56.820;24.416;2023-07-13T10:06:11;1.60;1.60;0.00
20157;PMS5003;10239;56.820;24.416;2023-07-13T10:08:41;2.00;2.00;1.00
20157;PMS5003;10239;56.820;24.416;2023-07-13T10:11:28;2.80;2.80;1.40
20157;PMS5003;10239;56.820;24.416;2023-07-13T10:13:57;2.00;2.00;1.00
20157;PMS5003;10239;56.820;24.416;2023-07-13T10:16:30;2.80;2.00;1.00
20157;PMS5003;10239;56.820;24.416;2023-07-13T10:22:00;2.60;2.60;2.00
20157;PMS5003;10239;56.820;24.416;2023-07-13T10:24:37;2.00;2.00;1.00
20157;PMS5003;10239;56.820;24.416;2023-07-13T10:27:19;4.00;2.40;1.00
20157;PMS5003;10239;56.820;24.416;2023-07-13T10:29:59;2.60;1.20;0.80
20157;PMS5003;10239;56.820;24.416;2023-07-13T10:32:36;1.00;1.00;0.00
20157;PMS5003;10239;56.820;24.416;2023-07-13T10:35:03;1.00;1.00;1.00
20157;PMS5003;10239;56.820;24.416;2023-07-13T10:37:55;2.00;2.00;1.00
20157;PMS5003;10239;56.820;24.416;2023-07-13T10:40:37;1.00;1.00;0.80
20157;PMS5003;10239;56.820;24.416;2023-07-13T10:43:32;3.00;3.00;1.80
20157;PMS5003;10239;56.820;24.416;2023-07-13T10:46:13;2.00;2.00;1.00
20157;PMS5003;10239;56.820;24.416;2023-07-13T10:48:44;2.00;2.00;1.00
20157;PMS5003;10239;56.820;24.416;2023-07-13T10:51:17;1.40;1.40;1.00
20157;PMS5003;10239;56.820;24.416;2023-07-13T10:53:48;2.60;2.00;1.00
20157;PMS5003;10239;56.820;24.416;2023-07-13T10:56:45;3.00;1.80;1.00
20157;PMS5003;10239;56.820;24.416;2023-07-13T10:59:17;1.00;1.00;1.00
20157;PMS5003;10239;56.820;24.416;2023-07-13T11:01:54;1.60;1.60;1.00
20157;PMS5003;10239;56.820;24.416;2023-07-13T11:04:23;3.40;2.00;1.20
20157;PMS5003;10239;56.820;24.416;2023-07-13T11:06:56;4.00;2.00;1.00
20157;PMS5003;10239;56.820;24.416;2023-07-13T11:09:34;1.20;1.20;1.00
20157;PMS5003;10239;56.820;24.416;2023-07-13T11:12:08;1.80;0.60;0.40
20157;PMS5003;10239;56.820;24.416;2023-07-13T11:20:22;3.00;3.00;1.00
20157;PMS5003;10239;56.820;24.416;2023-07-13T11:23:17;3.40;2.60;2.00
20157;PMS5003;10239;56.820;24.416;2023-07-13T11:25:49;2.60;2.60;1.00
20157;PMS5003;10239;56.820;24.416;2023-07-13T11:28:18;1.60;1.60;1.00
20157;PMS5003;10239;56.820;24.416;2023-07-13T11:30:59;2.20;2.20;1.00
20157;PMS5003;10239;56.820;24.416;2023-07-13T11:36:16;1.20;1.20;0.40
20157;PMS5003;10239;56.820;24.416;2023-07-13T11:38:55;1.60;1.40;1.00
20157;PMS5003;10239;56.820;24.416;2023-07-13T11:41:52;2.00;2.00;1.40
20157;PMS5003;10239;56.820;24.416;2023-07-13T11:44:25;1.80;1.80;1.00
20157;PMS5003;10239;56.820;24.416;2023-07-13T11:46:54;2.40;2.40;1.00
20157;PMS5003;10239;56.820;24.416;2023-07-13T11:49:24;1.20;1.20;0.00
20157;PMS5003;10239;56.820;24.416;2023-07-13T11:51:53;1.40;1.40;1.00
20157;PMS5003;10239;56.820;24.416;2023-07-13T11:54:41;2.40;1.00;0.40
20157;PMS5003;10239;56.820;24.416;2023-07-13T11:59:58;2.20;2.20;1.00
20157;PMS5003;10239;56.820;24.416;2023-07-13T12:02:40;1.80;1.80;1.00
20157;PMS5003;10239;56.820;24.416;2023-07-13T12:05:11;1.80;0.60;0.60
20157;PMS5003;10239;56.820;24.416;2023-07-13T12:07:42;2.00;2.00;1.00
20157;PMS5003;10239;56.820;24.416;2023-07-13T12:12:51;1.00;1.00;1.00
20157;PMS5003;10239;56.820;24.416;2023-07-13T12:15:44;2.00;2.00;1.00
20157;PMS5003;10239;56.820;24.416;2023-07-13T12:18:20;1.80;1.80;1.00
20157;PMS5003;10239;56.820;24.416;2023-07-13T12:20:49;1.80;1.80;1.00
20157;PMS5003;10239;56.820;24.416;2023-07-13T12:23:32;4.00;4.00;1.80
20157;PMS5003;10239;56.820;24.416;2023-07-13T12:26:03;2.60;2.60;2.00
20157;PMS5003;10239;56.820;24.416;2023-07-13T12:28:34;2.60;1.00;1.00
20157;PMS5003;10239;56.820;24.416;2023-07-13T12:31:34;2.60;2.60;1.60
20157;PMS5003;10239;56.820;24.416;2023-07-13T12:33:59;2.00;2.00;1.00
20157;PMS5003;10239;56.820;24.416;2023-07-13T12:36:34;1.00;1.00;1.00
20157;PMS5003;10239;56.820;24.416;2023-07-13T12:39:06;2.00;2.00;1.00
20157;PMS5003;10239;56.820;24.416;2023-07-13T12:41:40;4.00;2.20;1.00
20157;PMS5003;10239;56.820;24.416;2023-07-13T12:44:12;3.00;1.00;1.00
20157;PMS5003;10239;56.820;24.416;2023-07-13T12:49:40;2.00;2.00;1.00
20157;PMS5003;10239;56.820;24.416;2023-07-13T12:52:14;2.80;2.80;1.60
20157;PMS5003;10239;56.820;24.416;2023-07-13T12:54:52;2.40;2.40;1.00
20157;PMS5003;10239;56.820;24.416;2023-07-13T12:57:32;1.60;1.60;0.80
20157;PMS5003;10239;56.820;24.416;2023-07-13T13:00:37;1.40;1.40;1.00
20157;PMS5003;10239;56.820;24.416;2023-07-13T13:08:42;2.00;2.00;1.40
20157;PMS5003;10239;56.820;24.416;2023-07-13T13:11:10;3.40;3.00;1.00
20157;PMS5003;10239;56.820;24.416;2023-07-13T13:13:38;2.00;2.00;2.00
20157;PMS5003;10239;56.820;24.416;2023-07-13T13:16:12;6.40;4.00;2.00
20157;PMS5003;10239;56.820;24.416;2023-07-13T13:18:46;3.00;3.00;1.80
20157;PMS5003;10239;56.820;24.416;2023-07-13T13:21:14;3.20;3.20;2.00
20157;PMS5003;10239;56.820;24.416;2023-07-13T13:23:43;3.20;3.20;2.00
20157;PMS5003;10239;56.820;24.416;2023-07-13T13:26:15;2.00;2.00;1.40
20157;PMS5003;10239;56.820;24.416;2023-07-13T13:28:43;3.80;3.80;2.00
20157;PMS5003;10239;56.820;24.416;2023-07-13T13:31:11;3.20;3.20;2.20
20157;PMS5003;10239;56.820;24.416;2023-07-13T13:33:40;3.20;3.00;2.00
20157;PMS5003;10239;56.820;24.416;2023-07-13T13:36:15;4.60;3.00;1.00
20157;PMS5003;10239;56.820;24.416;2023-07-13T13:38:48;3.80;2.20;1.00
20157;PMS5003;10239;56.820;24.416;2023-07-13T13:41:17;3.60;3.60;1.60
20157;PMS5003;10239;56.820;24.416;2023-07-13T13:43:44;3.20;3.20;2.00
20157;PMS5003;10239;56.820;24.416;2023-07-13T13:46:14;1.40;1.40;0.60
20157;PMS5003;10239;56.820;24.416;2023-07-13T13:48:44;2.40;2.40;1.00
20157;PMS5003;10239;56.820;24.416;2023-07-13T13:51:24;5.20;3.00;2.00
20157;PMS5003;10239;56.820;24.416;2023-07-13T13:53:52;1.00;1.00;1.00
20157;PMS5003;10239;56.820;24.416;2023-07-13T13:56:20;2.00;2.00;1.60
20157;PMS5003;10239;56.820;24.416;2023-07-13T13:58:47;3.00;2.40;1.20
20157;PMS5003;10239;56.820;24.416;2023-07-13T14:01:19;2.40;2.00;1.00
20157;PMS5003;10239;56.820;24.416;2023-07-13T14:03:50;0.00;0.00;0.00
20157;PMS5003;10239;56.820;24.416;2023-07-13T14:06:20;3.60;2.20;1.40
20157;PMS5003;10239;56.820;24.416;2023-07-13T14:08:48;2.60;1.80;1.00
20157;PMS5003;10239;56.820;24.416;2023-07-13T14:11:17;2.40;2.40;1.40
20157;PMS5003;10239;56.820;24.416;2023-07-13T14:13:56;2.00;2.00;2.00
20157;PMS5003;10239;56.820;24.416;2023-07-13T14:16:29;2.00;2.00;1.00
20157;PMS5003;10239;56.820;24.416;2023-07-13T14:19:01;2.00;2.00;1.00
20157;PMS5003;10239;56.820;24.416;2023-07-13T14:21:29;3.60;3.60;2.00
20157;PMS5003;10239;56.820;24.416;2023-07-13T14:23:57;2.00;2.00;1.20
20157;PMS5003;10239;56.820;24.416;2023-07-13T14:26:25;2.40;2.40;1.80
20157;PMS5003;10239;56.820;24.416;2023-07-13T14:28:55;1.40;1.40;1.00
20157;PMS5003;10239;56.820;24.416;2023-07-13T14:31:24;2.00;2.00;1.00
20157;PMS5003;10239;56.820;24.416;2023-07-13T14:33:57;2.60;2.60;1.00
20157;PMS5003;10239;56.820;24.416;2023-07-13T14:38:55;2.20;2.20;2.00
20157;PMS5003;10239;56.820;24.416;2023-07-13T14:41:24;3.20;2.20;1.00
20157;PMS5003;10239;56.820;24.416;2023-07-13T14:43:52;3.00;1.00;1.00
20157;PMS5003;10239;56.820;24.416;2023-07-13T14:46:33;1.40;1.40;0.00
20157;PMS5003;10239;56.820;24.416;2023-07-13T14:49:06;2.60;2.60;1.20
20157;PMS5003;10239;56.820;24.416;2023-07-13T14:51:37;3.00;3.00;2.00
20157;PMS5003;10239;56.820;24.416;2023-07-13T14:54:05;3.00;3.00;2.00
20157;PMS5003;10239;56.820;24.416;2023-07-13T14:56:35;1.60;1.60;1.60
20157;PMS5003;10239;56.820;24.416;2023-07-13T14:59:03;5.20;4.20;3.00
20157;PMS5003;10239;56.820;24.416;2023-07-13T15:01:31;2.20;2.20;1.60
20157;PMS5003;10239;56.820;24.416;2023-07-13T15:03:59;3.60;3.60;2.00
20157;PMS5003;10239;56.820;24.416;2023-07-13T15:06:27;3.00;3.00;2.00
20157;PMS5003;10239;56.820;24.416;2023-07-13T15:08:55;3.00;3.00;2.00
20157;PMS5003;10239;56.820;24.416;2023-07-13T15:11:23;4.20;4.20;2.40
20157;PMS5003;10239;56.820;24.416;2023-07-13T15:13:51;2.40;2.20;1.60
20157;PMS5003;10239;56.820;24.416;2023-07-13T15:16:24;2.20;2.00;1.00